createdAt,value
2018-05-11T00:01:59.964Z,6.33
2018-05-11T00:05:05.954Z,7.63
2018-05-11T00:08:11.861Z,7.00
2018-05-11T00:11:18.134Z,8.03
2018-05-11T00:14:24.153Z,13.63
2018-05-11T00:17:30.132Z,5.90
2018-05-11T00:20:37.105Z,6.40
2018-05-11T00:23:43.507Z,5.67
2018-05-11T00:26:50.323Z,5.37
2018-05-11T00:29:56.263Z,5.43
2018-05-11T00:33:02.725Z,8.07
2018-05-11T00:36:08.892Z,9.43
2018-05-11T00:39:14.191Z,7.83
2018-05-11T00:42:19.550Z,8.70
2018-05-11T00:45:24.847Z,9.17
2018-05-11T00:48:31.197Z,10.60
2018-05-11T00:51:37.404Z,7.83
2018-05-11T00:54:42.923Z,7.40
2018-05-11T00:57:49.179Z,5.23
2018-05-11T01:00:55.119Z,8.33
2018-05-11T01:04:00.496Z,10.10
2018-05-11T01:07:06.660Z,6.23
2018-05-11T01:10:13.595Z,5.37
2018-05-11T01:13:19.668Z,7.17
2018-05-11T01:16:25.765Z,7.07
2018-05-11T01:19:32.540Z,6.13
2018-05-11T01:22:38.495Z,6.07
2018-05-11T01:25:46.536Z,7.33
2018-05-11T01:28:52.735Z,7.33
2018-05-11T01:31:59.604Z,7.57
2018-05-11T01:35:05.730Z,8.50
2018-05-11T01:38:11.873Z,5.80
2018-05-11T01:41:17.983Z,7.87
2018-05-11T01:44:24.267Z,8.33
2018-05-11T01:47:29.697Z,5.70
2018-05-11T01:50:34.838Z,6.20
2018-05-11T01:53:41.765Z,8.10
2018-05-11T01:56:47.802Z,7.77
2018-05-11T01:59:53.872Z,11.77
2018-05-11T02:02:59.897Z,7.00
2018-05-11T02:06:06.154Z,5.40
2018-05-11T02:09:12.201Z,5.93
2018-05-11T02:12:18.315Z,9.20
2018-05-11T02:15:24.487Z,11.07
2018-05-11T02:18:30.712Z,9.13
2018-05-11T02:21:36.476Z,5.83
2018-05-11T02:24:44.556Z,8.40
2018-05-11T02:27:50.519Z,7.83
2018-05-11T02:30:56.746Z,6.77
2018-05-11T02:34:03.000Z,9.47
2018-05-11T02:37:14.441Z,7.60
2018-05-11T02:40:20.858Z,6.83
2018-05-11T02:43:27.934Z,7.83
2018-05-11T02:46:33.172Z,8.60
2018-05-11T02:49:39.450Z,10.87
2018-05-11T02:52:44.701Z,10.87
2018-05-11T02:55:50.879Z,8.43
2018-05-11T02:58:57.263Z,11.53
2018-05-11T03:02:03.388Z,14.63
2018-05-11T03:05:09.383Z,11.50
2018-05-11T03:08:15.411Z,13.03
2018-05-11T03:11:21.530Z,17.73
2018-05-11T03:14:27.877Z,19.10
2018-05-11T03:17:34.117Z,14.10
2018-05-11T03:20:40.172Z,16.60
2018-05-11T03:23:45.422Z,15.47
2018-05-11T03:26:50.715Z,16.07
2018-05-11T03:29:56.918Z,14.20
2018-05-11T03:33:02.356Z,16.07
2018-05-11T03:36:08.477Z,20.70
2018-05-11T03:39:13.806Z,14.77
2018-05-11T03:42:19.802Z,24.20
2018-05-11T03:45:26.161Z,19.10
2018-05-11T03:48:31.940Z,14.63
2018-05-11T03:51:37.294Z,18.57
2018-05-11T03:54:43.140Z,19.90
2018-05-11T03:57:49.359Z,19.00
2018-05-11T04:00:56.751Z,21.03
2018-05-11T04:04:14.676Z,14.53
2018-05-11T04:07:32.050Z,17.90
2018-05-11T04:10:38.227Z,13.27
2018-05-11T04:13:44.345Z,13.50
2018-05-11T04:16:49.579Z,12.30
2018-05-11T04:19:55.815Z,9.27
2018-05-11T04:23:01.257Z,9.33
2018-05-11T04:26:07.373Z,10.93
2018-05-11T04:29:13.549Z,13.80
2018-05-11T04:32:19.596Z,9.23
2018-05-11T04:35:25.862Z,14.63
2018-05-11T04:38:31.037Z,8.10
2018-05-11T04:41:37.081Z,8.53
2018-05-11T04:44:44.192Z,8.40
2018-05-11T04:47:50.230Z,6.77
2018-05-11T04:50:56.398Z,9.67
2018-05-11T04:54:03.164Z,7.93
2018-05-11T04:57:09.050Z,9.27
2018-05-11T05:00:14.959Z,11.63
2018-05-11T05:03:21.254Z,9.07
2018-05-11T05:06:27.688Z,9.80
2018-05-11T05:09:33.954Z,11.90
2018-05-11T05:12:40.186Z,10.33
2018-05-11T05:15:46.225Z,9.70
2018-05-11T05:18:52.180Z,9.17
2018-05-11T05:21:58.499Z,8.80
2018-05-11T05:28:39.745Z,9.10
2018-05-11T05:31:44.980Z,8.10
2018-05-11T05:34:51.238Z,7.17
2018-05-11T05:37:57.407Z,6.20
2018-05-11T05:41:02.713Z,9.03
2018-05-11T05:44:07.865Z,5.97
2018-05-11T05:47:14.196Z,6.50
2018-05-11T05:50:19.424Z,6.50
2018-05-11T05:53:25.438Z,8.60
2018-05-11T05:56:31.453Z,9.43
2018-05-11T05:59:37.666Z,11.60
2018-05-11T06:02:43.603Z,7.77
2018-05-11T06:05:48.880Z,11.73
2018-05-11T06:08:56.128Z,12.23
2018-05-11T06:12:01.421Z,13.00
2018-05-11T06:15:07.696Z,10.50
2018-05-11T06:18:13.647Z,13.30
2018-05-11T06:21:19.727Z,8.93
2018-05-11T06:24:26.173Z,16.37
2018-05-11T06:27:32.370Z,12.43
2018-05-11T06:30:38.735Z,11.90
2018-05-11T06:33:44.912Z,10.77
2018-05-11T06:36:51.164Z,11.10
2018-05-11T06:39:57.323Z,15.17
2018-05-11T06:43:03.481Z,13.60
2018-05-11T06:46:09.620Z,17.33
2018-05-11T06:49:15.965Z,19.13
2018-05-11T06:52:22.179Z,14.80
2018-05-11T06:55:28.506Z,17.63
2018-05-11T06:58:34.969Z,19.10
2018-05-11T07:01:41.141Z,17.73
2018-05-11T07:04:47.129Z,15.07
2018-05-11T07:07:53.575Z,19.70
2018-05-11T07:11:00.530Z,20.07
2018-05-11T07:14:06.705Z,20.80
2018-05-11T07:17:13.639Z,17.00
2018-05-11T07:20:19.343Z,20.30
2018-05-11T07:23:27.451Z,22.93
2018-05-11T07:26:34.080Z,18.73
2018-05-11T07:29:40.601Z,21.10
2018-05-11T07:32:50.733Z,20.50
2018-05-11T07:35:59.620Z,19.43
2018-05-11T07:39:06.119Z,16.90
2018-05-11T07:42:14.008Z,21.90
2018-05-11T07:45:21.528Z,18.60
2018-05-11T07:48:28.450Z,21.40
2018-05-11T07:51:34.910Z,24.10
2018-05-11T07:54:43.137Z,19.03
2018-05-11T07:57:49.415Z,14.57
2018-05-11T08:00:56.505Z,16.77
2018-05-11T08:04:02.841Z,19.20
2018-05-11T08:07:08.066Z,18.23
2018-05-11T08:10:13.477Z,15.43
2018-05-11T08:13:21.299Z,17.90
2018-05-11T08:16:28.303Z,16.33
2018-05-11T08:19:34.213Z,22.63
2018-05-11T08:22:40.142Z,18.63
2018-05-11T08:25:46.740Z,16.90
2018-05-11T08:28:52.770Z,19.30
2018-05-11T08:31:58.831Z,14.90
2018-05-11T08:35:04.971Z,18.77
2018-05-11T08:38:11.246Z,16.40
2018-05-11T08:41:16.471Z,21.67
2018-05-11T08:44:22.877Z,21.70
2018-05-11T08:47:29.144Z,18.47
2018-05-11T08:50:34.500Z,17.13
2018-05-11T08:53:40.705Z,17.83
2018-05-11T08:56:46.239Z,17.73
2018-05-11T08:59:53.464Z,13.03
2018-05-11T09:02:58.800Z,20.73
2018-05-11T09:06:05.063Z,12.73
2018-05-11T09:09:12.832Z,19.10
2018-05-11T09:12:19.559Z,17.40
2018-05-11T09:15:25.748Z,14.00
2018-05-11T09:18:31.519Z,16.70
2018-05-11T09:21:38.585Z,15.23
2018-05-11T09:24:45.680Z,14.43
2018-05-11T09:27:50.927Z,13.00
2018-05-11T09:30:56.992Z,14.83
2018-05-11T09:34:03.177Z,11.07
2018-05-11T09:37:09.473Z,14.27
2018-05-11T09:40:15.548Z,14.20
2018-05-11T09:43:21.751Z,19.33
2018-05-11T09:46:27.648Z,12.40
2018-05-11T09:49:33.886Z,12.70
2018-05-11T09:52:40.031Z,14.97
2018-05-11T09:55:46.346Z,14.33
2018-05-11T09:58:54.526Z,12.07
2018-05-11T10:02:01.212Z,11.40
2018-05-11T10:05:09.605Z,10.60
2018-05-11T10:08:17.172Z,12.93
2018-05-11T10:11:23.177Z,11.40
2018-05-11T10:14:37.323Z,13.10
2018-05-11T10:17:43.949Z,10.20
2018-05-11T10:21:04.913Z,12.37
2018-05-11T10:24:11.889Z,11.73
2018-05-11T10:27:18.062Z,11.33
2018-05-11T10:30:24.142Z,12.93
2018-05-11T10:33:30.306Z,11.27
2018-05-11T10:36:37.174Z,12.50
2018-05-11T10:39:43.463Z,12.97
2018-05-11T10:42:48.830Z,10.97
2018-05-11T10:45:55.096Z,10.03
2018-05-11T10:49:01.311Z,11.40
2018-05-11T10:52:07.144Z,12.63
2018-05-11T10:55:14.028Z,12.43
2018-05-11T10:58:19.854Z,12.30
2018-05-11T11:01:26.212Z,13.30
2018-05-11T11:04:32.097Z,13.33
2018-05-11T11:07:38.367Z,11.33
2018-05-11T11:10:44.421Z,15.20
2018-05-11T11:13:50.664Z,10.47
2018-05-11T11:16:56.012Z,11.47
2018-05-11T11:20:01.593Z,10.07
2018-05-11T11:23:06.883Z,13.80
2018-05-11T11:26:12.152Z,10.17
2018-05-11T11:29:18.507Z,10.87
2018-05-11T11:32:23.838Z,10.37
2018-05-11T11:35:29.198Z,10.70
2018-05-11T11:38:35.618Z,9.53
2018-05-11T11:41:41.743Z,10.30
2018-05-11T11:44:48.258Z,10.47
2018-05-11T11:47:54.312Z,15.10
2018-05-11T11:51:00.608Z,12.27
2018-05-11T11:54:06.138Z,11.30
2018-05-11T11:57:12.212Z,11.03
2018-05-11T12:00:18.118Z,12.30
2018-05-11T12:03:24.571Z,11.23
2018-05-11T12:06:29.901Z,10.30
2018-05-11T12:09:35.343Z,11.60
2018-05-11T12:12:41.599Z,11.23
2018-05-11T12:15:47.931Z,10.20
2018-05-11T12:18:55.087Z,10.60
2018-05-11T12:22:01.116Z,14.97
2018-05-11T12:25:07.442Z,14.47
2018-05-11T12:28:13.462Z,13.10
2018-05-11T12:31:19.694Z,17.40
2018-05-11T12:34:25.872Z,14.73
2018-05-11T12:37:31.206Z,14.33
2018-05-11T12:40:37.237Z,15.67
2018-05-11T12:43:42.634Z,15.20
2018-05-11T12:46:48.046Z,14.73
2018-05-11T12:49:54.408Z,14.90
2018-05-11T12:52:59.773Z,13.77
2018-05-11T12:56:05.783Z,13.33
2018-05-11T12:59:11.191Z,17.87
2018-05-11T13:02:17.166Z,17.00
2018-05-11T13:05:23.303Z,15.17
2018-05-11T13:08:29.647Z,16.23
2018-05-11T13:11:34.972Z,15.20
2018-05-11T13:14:41.540Z,14.53
2018-05-11T13:17:46.776Z,15.83
2018-05-11T13:20:53.059Z,16.93
2018-05-11T13:23:59.169Z,15.53
2018-05-11T13:27:05.280Z,14.27
2018-05-11T13:30:12.572Z,15.20
2018-05-11T13:33:17.958Z,17.70
2018-05-11T13:36:23.263Z,14.57
2018-05-11T13:39:29.451Z,14.87
2018-05-11T13:42:34.562Z,16.47
2018-05-11T13:45:40.820Z,18.87
2018-05-11T13:48:47.022Z,17.30
2018-05-11T13:51:53.207Z,17.57
2018-05-11T13:54:59.153Z,18.20
2018-05-11T13:58:04.608Z,15.40
2018-05-11T14:01:10.018Z,17.33
2018-05-11T14:04:17.187Z,16.53
2018-05-11T14:07:23.450Z,18.60
2018-05-11T14:10:34.653Z,19.30
2018-05-11T14:13:41.657Z,22.43
2018-05-11T14:16:47.863Z,18.03
2018-05-11T14:19:53.167Z,18.10
2018-05-11T14:22:59.282Z,19.57
2018-05-11T14:26:05.253Z,21.73
2018-05-11T14:29:11.553Z,17.67
2018-05-11T14:32:16.995Z,20.90
2018-05-11T14:35:23.125Z,17.60
2018-05-11T14:38:28.916Z,22.53
2018-05-11T14:41:34.650Z,21.67
2018-05-11T14:44:41.757Z,18.93
2018-05-11T14:47:46.989Z,20.20
2018-05-11T14:50:55.421Z,20.10
2018-05-11T14:54:06.852Z,21.23
2018-05-11T14:57:14.840Z,23.97
2018-05-11T15:00:20.885Z,23.63
2018-05-11T15:03:26.403Z,19.33
2018-05-11T15:06:32.228Z,20.30
2018-05-11T15:09:38.649Z,19.27
2018-05-11T15:12:44.246Z,20.07
2018-05-11T15:15:50.608Z,19.80
2018-05-11T15:18:56.728Z,21.00
2018-05-11T15:22:03.036Z,20.77
2018-05-11T15:25:09.094Z,21.10
2018-05-11T15:28:15.209Z,22.73
2018-05-11T15:31:21.322Z,17.50
2018-05-11T15:34:26.670Z,22.40
2018-05-11T15:37:32.778Z,22.57
2018-05-11T15:40:39.011Z,25.33
2018-05-11T15:43:44.305Z,21.40
2018-05-11T15:46:50.252Z,22.10
2018-05-11T15:49:56.400Z,22.60
2018-05-11T15:53:02.358Z,22.03
2018-05-11T15:56:08.502Z,21.17
2018-05-11T15:59:14.617Z,24.10
2018-05-11T16:02:19.961Z,22.17
2018-05-11T16:05:26.028Z,18.67
2018-05-11T16:08:32.091Z,20.23
2018-05-11T16:11:37.248Z,21.07
2018-05-11T16:14:43.605Z,18.63
2018-05-11T16:17:48.920Z,22.47
2018-05-11T16:20:55.057Z,19.67
2018-05-11T16:24:01.160Z,18.03
2018-05-11T16:27:07.481Z,20.93
2018-05-11T16:30:13.785Z,20.40
2018-05-11T16:33:20.248Z,23.93
2018-05-11T16:36:25.726Z,22.77
2018-05-11T16:39:30.951Z,22.87
2018-05-11T16:42:36.963Z,20.30
2018-05-11T16:45:43.351Z,21.90
2018-05-11T16:48:49.642Z,22.93
2018-05-11T16:51:55.932Z,21.40
2018-05-11T16:55:01.792Z,22.57
2018-05-11T16:58:07.463Z,23.97
2018-05-11T17:01:15.214Z,23.77
2018-05-11T17:04:23.382Z,21.57
2018-05-11T17:07:29.373Z,22.20
2018-05-11T17:10:35.545Z,21.50
2018-05-11T17:13:41.577Z,22.37
2018-05-11T17:16:47.056Z,24.37
2018-05-11T17:19:53.797Z,22.70
2018-05-11T17:22:59.004Z,22.47
2018-05-11T17:26:04.347Z,23.50
2018-05-11T17:29:09.941Z,24.77
2018-05-11T17:32:16.354Z,23.23
2018-05-11T17:35:23.614Z,19.63
2018-05-11T17:38:30.021Z,22.20
2018-05-11T17:41:36.532Z,23.97
2018-05-11T17:44:43.199Z,20.57
2018-05-11T17:47:48.991Z,23.40
2018-05-11T17:50:54.186Z,22.67
2018-05-11T17:54:03.312Z,21.33
2018-05-11T17:57:09.544Z,19.17
2018-05-11T18:00:15.644Z,22.90
2018-05-11T18:03:21.840Z,22.70
2018-05-11T18:06:27.937Z,23.03
2018-05-11T18:09:34.082Z,23.47
2018-05-11T18:12:39.695Z,19.73
2018-05-11T18:15:46.149Z,23.13
2018-05-11T18:18:53.351Z,22.03
2018-05-11T18:21:59.497Z,22.50
2018-05-11T18:25:04.899Z,19.00
2018-05-11T18:28:11.007Z,24.87
2018-05-11T18:31:18.746Z,19.57
2018-05-11T18:34:25.718Z,26.00
2018-05-11T18:37:31.895Z,20.70
2018-05-11T18:40:38.215Z,21.43
2018-05-11T18:43:44.395Z,27.43
2018-05-11T18:46:50.615Z,23.90
2018-05-11T18:49:56.634Z,21.07
2018-05-11T18:53:02.883Z,24.83
2018-05-11T18:56:09.018Z,26.77
2018-05-11T18:59:15.107Z,20.40
2018-05-11T19:02:21.313Z,15.70
2018-05-11T19:05:28.260Z,19.83
2018-05-11T19:08:34.497Z,25.80
2018-05-11T19:11:40.700Z,20.13
2018-05-11T19:14:47.544Z,24.17
2018-05-11T19:17:53.848Z,22.07
2018-05-11T19:20:59.842Z,22.00
2018-05-11T19:24:05.934Z,26.37
2018-05-11T19:27:11.613Z,26.40
2018-05-11T19:30:18.216Z,20.10
2018-05-11T19:33:24.425Z,25.40
2018-05-11T19:36:29.617Z,19.67
2018-05-11T19:39:34.959Z,20.77
2018-05-11T19:42:39.982Z,22.03
2018-05-11T19:45:46.196Z,21.57
2018-05-11T19:48:52.122Z,23.10
2018-05-11T19:51:58.695Z,20.50
2018-05-11T19:55:05.750Z,21.70
2018-05-11T19:58:11.830Z,24.60
2018-05-11T20:01:20.015Z,21.27
2018-05-11T20:04:26.415Z,23.30
2018-05-11T20:07:31.687Z,20.43
2018-05-11T20:10:37.910Z,21.53
2018-05-11T20:13:44.628Z,24.77
2018-05-11T20:16:52.206Z,25.40
2018-05-11T20:20:00.068Z,29.80
2018-05-11T20:23:05.088Z,29.53
2018-05-11T20:26:11.202Z,28.57
2018-05-11T20:29:16.475Z,27.07
2018-05-11T20:32:24.187Z,29.20
2018-05-11T20:35:31.875Z,28.40
2018-05-11T20:38:39.053Z,27.93
2018-05-11T20:41:46.452Z,20.43
2018-05-11T20:44:51.701Z,22.90
2018-05-11T20:47:57.573Z,24.80
2018-05-11T20:51:04.078Z,22.30
2018-05-11T20:54:10.535Z,26.03
2018-05-11T20:57:16.929Z,24.03
2018-05-11T21:00:23.202Z,23.70
2018-05-11T21:03:30.550Z,30.13
2018-05-11T21:06:36.418Z,21.77
2018-05-11T21:09:42.934Z,21.60
2018-05-11T21:12:49.433Z,22.50
2018-05-11T21:15:55.324Z,23.63
2018-05-11T21:19:01.434Z,23.90
2018-05-11T21:22:06.832Z,19.83
2018-05-11T21:25:13.147Z,22.87
2018-05-11T21:28:19.964Z,22.20
2018-05-11T21:31:26.485Z,23.90
2018-05-11T21:34:31.982Z,24.27
2018-05-11T21:37:38.264Z,22.93
2018-05-11T21:40:45.237Z,26.17
2018-05-11T21:43:51.528Z,26.13
2018-05-11T21:46:59.750Z,35.10
2018-05-11T21:50:06.952Z,28.53
2018-05-11T21:53:12.947Z,27.70
2018-05-11T21:56:19.880Z,29.10
2018-05-11T21:59:26.280Z,30.53
2018-05-11T22:02:32.371Z,30.97
2018-05-11T22:05:39.567Z,25.10
2018-05-11T22:08:45.716Z,26.23
2018-05-11T22:11:50.966Z,27.97
2018-05-11T22:14:57.421Z,29.40
2018-05-11T22:18:04.384Z,24.77
2018-05-11T22:21:10.838Z,30.03
2018-05-11T22:24:15.969Z,32.40
2018-05-11T22:27:21.398Z,32.33
2018-05-11T22:30:28.722Z,29.07
2018-05-11T22:33:34.989Z,33.87
2018-05-11T22:36:41.354Z,26.60
2018-05-11T22:39:48.481Z,35.97
2018-05-11T22:42:54.127Z,28.00
2018-05-11T22:46:00.250Z,30.37
2018-05-11T22:49:06.727Z,25.80
2018-05-11T22:52:12.269Z,31.13
2018-05-11T22:55:18.530Z,30.57
2018-05-11T22:58:24.839Z,27.87
2018-05-11T23:01:34.232Z,33.33
2018-05-11T23:04:39.637Z,28.80
2018-05-11T23:07:46.774Z,27.30
2018-05-11T23:10:53.060Z,25.33
2018-05-11T23:13:59.248Z,27.80
2018-05-11T23:17:20.020Z,29.80
2018-05-11T23:20:26.806Z,25.97
2018-05-11T23:23:36.485Z,30.37
2018-05-11T23:26:43.070Z,29.57
2018-05-11T23:29:49.228Z,37.73
2018-05-11T23:32:56.622Z,34.40
2018-05-11T23:36:04.921Z,32.87
2018-05-11T23:39:29.998Z,34.73
2018-05-11T23:42:38.613Z,30.63
2018-05-11T23:45:46.224Z,36.23
2018-05-11T23:52:30.865Z,39.60
2018-05-11T23:55:38.044Z,39.63
2018-05-11T23:58:44.800Z,42.93
